Natsushima — 7JDU — position and weather

sailwx.info

Track history (hours):
 
Tides and Currents Weather Stations Pressure Air Temp Water Temp Dewpoint Dewpoint Depression Visibility Wind Speed Wind Dir Waves Ship Positions

Oceanographic research ship Natsushima (Japan)

Detailed information on ship capabilities available from University of Delaware's Ocean Information Center.

Last reported at 2019-Jul-20 00:22 UTC. Time now 2019-Oct-14 11:26 UTC.
Position N 35°07' E 139°34'.
Warning: this ship's position is months out of date.

Length 67.4 m; beam 13 m.

Type: Other ship. MMSI: 431129000.

Date/timePositionNaut miles runAvg speedWind from/ knotsBaromVisibWave heightAir tempDewpointWater temp
2019-Jul-20 00:22N 35°07' E 139°34'6 9.8
2019-Jul-19 23:46N 35°06' E 139°41'4 8.4
2019-Jul-19 23:18N 35°08' E 139°45'310.7
2019-Jul-19 23:00N 35°11' E 139°46'510.7
2019-Jul-19 22:30N 35°16' E 139°45'510.2
2019-Jul-19 22:00N 35°21' E 139°42'4 8.7
2019-Jul-19 21:30N 35°25' E 139°43'3 5.7
2019-Jul-19 20:58N 35°27' E 139°40'0 0.0
2019-Jul-19 20:28N 35°27' E 139°40'0 0.0
2019-Jul-19 00:18N 35°27' E 139°40'0 0.0
2019-Jul-19 00:01N 35°27' E 139°40'0 0.5
2019-Jul-18 23:31N 35°27' E 139°40'3 5.7
2019-Jul-18 23:00N 35°25' E 139°43'1 2.3
2019-Jul-18 22:30N 35°24' E 139°42'4 7.7
2019-Jul-18 22:01N 35°21' E 139°43'4 8.7
2019-Jul-18 21:31N 35°17' E 139°46'5 8.8
2019-Jul-18 20:59N 35°12' E 139°47'610.9
2019-Jul-18 20:28N 35°07' E 139°47'6 1.7
2019-Jul-18 16:57N 35°01' E 139°47'  
2019-Jul-14 00:28N 34°57' E 140°04'1 0.0
2019-Jul-13 09:52N 34°58' E 140°03'  
Track history (hours):
 
Tides and Currents Weather Stations Pressure Air Temp Water Temp Dewpoint Dewpoint Depression Visibility Wind Speed Wind Dir Waves Ship Positions

Oceanographic research ship Natsushima (Japan)

Detailed information on ship capabilities available from University of Delaware's Ocean Information Center.

Last reported at 2019-Jul-20 00:22 UTC. Time now 2019-Oct-14 11:26 UTC.
Position N 35°07' E 139°34'.
Warning: this ship's position is months out of date.

Length 67.4 m; beam 13 m.

Type: Other ship. MMSI: 431129000.

Date/timePositionNaut miles runAvg speedWind from/ knotsBaromVisibWave heightAir tempDewpointWater temp
2019-Jul-20 00:22N 35°07' E 139°34'6 9.8
2019-Jul-19 23:46N 35°06' E 139°41'4 8.4
2019-Jul-19 23:18N 35°08' E 139°45'310.7
2019-Jul-19 23:00N 35°11' E 139°46'510.7
2019-Jul-19 22:30N 35°16' E 139°45'510.2
2019-Jul-19 22:00N 35°21' E 139°42'4 8.7
2019-Jul-19 21:30N 35°25' E 139°43'3 5.7
2019-Jul-19 20:58N 35°27' E 139°40'0 0.0
2019-Jul-19 20:28N 35°27' E 139°40'0 0.0
2019-Jul-19 00:18N 35°27' E 139°40'0 0.0
2019-Jul-19 00:01N 35°27' E 139°40'0 0.5
2019-Jul-18 23:31N 35°27' E 139°40'3 5.7
2019-Jul-18 23:00N 35°25' E 139°43'1 2.3
2019-Jul-18 22:30N 35°24' E 139°42'4 7.7
2019-Jul-18 22:01N 35°21' E 139°43'4 8.7
2019-Jul-18 21:31N 35°17' E 139°46'5 8.8
2019-Jul-18 20:59N 35°12' E 139°47'610.9
2019-Jul-18 20:28N 35°07' E 139°47'6 1.7
2019-Jul-18 16:57N 35°01' E 139°47'  
2019-Jul-14 00:28N 34°57' E 140°04'1 0.0
2019-Jul-13 09:52N 34°58' E 140°03'  

Dump ship's entire track history